Latest Coastal Weather Observations for Charles Point

IDD60701

Issued at 8:05 pm CST Thursday 2 October 2014 (issued every 10 minutes, with the page automatically refreshed every 10 minutes)

About coastal observations | Map of coastal stations | Coastal observations for NT | Marine services | Other Formats
Station Details ID: 014031 Name: CHARLES POINT Lat: -12.39 Lon: 130.63 Height: 14.0 m
Data from the previous 72 hours. | See also: Recent months for locations in Northern Territory
Date/Time
CST
Temp

°C
Wind Pressure Rain
since 9am
mm
Weather Cloud Vis
km
Sea
Height
m
Swell
Dir
 
Speed
knots
Gust
knots
hPa Trend Height
m
Period
s
Dir
02/08:00pm 26.5 SSW 3 4 1011.5 - 0.0 - - - - - - -
02/07:30pm 27.1 SW 2 4 1011.3 - 0.0 - - - - - - -
02/07:00pm 27.4 WNW 2 4 1011.2 - 0.0 - - - - - - -
02/06:30pm 28.4 NW 3 6 1010.9 - 0.0 - - - - - - -
02/06:00pm 29.0 NW 4 7 1010.3 - 0.0 - - - - - - -
02/05:30pm 29.4 NW 6 9 1010.0 - 0.0 - - - - - - -
02/05:00pm 29.5 NW 6 8 1009.7 - 0.0 - - - - - - -
02/04:30pm 29.5 NNW 7 10 1009.7 - 0.0 - - - - - - -
02/04:00pm 29.6 NW 7 11 1009.7 - 0.0 - - - - - - -
02/03:30pm 29.3 NNW 7 12 1009.9 - 0.0 - - - - - - -
02/03:00pm 30.0 NW 8 11 1010.0 - 0.0 - - - - - - -
02/02:30pm 30.2 NW 8 12 1010.2 - 0.0 - - - - - - -
02/02:00pm 29.9 NW 8 12 1010.5 - 0.0 - - - - - - -
02/01:30pm 30.3 NW 8 11 1010.9 - 0.0 - - - - - - -
02/01:00pm 29.8 NW 8 11 1011.5 - 0.0 - - - - - - -
02/12:30pm 29.9 NNW 7 10 1012.2 - 0.0 - - - - - - -
02/12:00pm 29.8 NNW 5 8 1012.8 - 0.0 - - - - - - -
02/11:30am 29.4 NNW 5 7 1013.2 - 0.0 - - - - - - -
02/11:00am 28.7 N 4 5 1013.8 - 0.0 - - - - - - -
02/10:30am 29.6 NNW 4 5 1014.2 - 0.0 - - - - - - -
02/10:00am 28.6 N 4 6 1014.2 - 0.0 - - - - - - -
02/09:30am 28.2 NNE 3 4 1014.5 - 0.0 - - - - - - -
02/09:00am 28.1 N 3 4 1014.4 - 0.0 - - - - - - -
02/08:30am 28.0 N 1 2 1014.1 - 0.0 - - - - - - -
02/08:00am 27.4 N 2 3 1013.8 - 0.0 - - - - - - -
02/07:30am 26.9 N 2 4 1013.6 - 0.0 - - - - - - -
02/07:00am 26.5 N 4 6 1013.0 - 0.0 - - - - - - -
02/06:30am 25.9 NW 3 6 1012.3 - 0.0 - - - - - - -
02/06:00am 26.4 NW 4 7 1012.0 - 0.0 - - - - - - -
02/05:30am 24.4 WNW 2 4 1011.7 - 0.0 - - - - - - -
02/05:00am 24.5 W 2 5 1011.5 - 0.0 - - - - - - -
02/04:30am 24.3 W 2 4 1011.3 - 0.0 - - - - - - -
02/04:00am 24.5 WSW 3 4 1011.4 - 0.0 - - - - - - -
02/03:30am 24.3 W 2 4 1011.7 - 0.0 - - - - - - -
02/03:00am 24.5 CALM 0 0 1012.0 - 0.0 - - - - - - -
02/02:30am 26.9 N 2 4 1012.2 - 0.0 - - - - - - -
02/02:00am 27.1 NNE 4 7 1012.6 - 0.0 - - - - - - -
02/01:30am 27.2 NNE 4 6 1012.6 - 0.0 - - - - - - -
02/01:00am 27.3 N 4 6 1012.7 - 0.0 - - - - - - -
02/12:30am 27.5 NW 7 12 1012.8 - 0.0 - - - - - - -
02/12:00am 27.6 WNW 9 12 1013.0 - 0.0 - - - - - - -
 
Date/Time
CST
Temp

°C
Wind Pressure Rain
since 9am
mm
Weather Cloud Vis
km
Sea
Height
m
Swell
Dir
 
Speed
knots
Gust
knots
hPa Trend Height
m
Period
s
Dir
01/11:30pm 26.2 WSW 2 4 1013.0 - 0.0 - - - - - - -
01/11:00pm 25.6 SW 2 3 1013.1 - 0.0 - - - - - - -
01/10:30pm 25.4 SW 2 4 1013.0 - 0.0 - - - - - - -
01/10:00pm 25.8 SW 3 4 1012.8 - 0.0 - - - - - - -
01/09:30pm 25.9 S 2 3 1012.6 - 0.0 - - - - - - -
01/09:00pm 26.8 SE 2 5 1012.2 - 0.0 - - - - - - -
01/08:30pm 26.9 S 5 6 1011.6 - 0.0 - - - - - - -
01/08:00pm 26.1 S 3 4 1011.2 - 0.0 - - - - - - -
01/07:30pm 26.8 NNE 2 2 1010.9 - 0.0 - - - - - - -
01/07:00pm 27.7 NNE 1 2 1010.5 - 0.0 - - - - - - -
01/06:30pm 29.1 N 3 4 1010.2 - 0.0 - - - - - - -
01/06:00pm 29.1 N 5 6 1010.0 - 0.0 - - - - - - -
01/05:30pm 29.1 N 5 7 1009.7 - 0.0 - - - - - - -
01/05:00pm 28.9 N 6 8 1009.7 - 0.0 - - - - - - -
01/04:30pm 29.1 NNE 6 9 1009.6 - 0.0 - - - - - - -
01/04:00pm 29.5 NNE 7 11 1009.9 - 0.0 - - - - - - -
01/03:30pm 29.3 NNE 9 13 1009.9 - 0.0 - - - - - - -
01/03:00pm 28.7 NNE 10 14 1010.1 - 0.0 - - - - - - -
01/02:30pm 28.8 N 12 16 1010.6 - 0.0 - - - - - - -
01/02:00pm 28.4 N 12 16 1011.0 - 0.0 - - - - - - -
01/01:30pm 28.6 N 11 13 1011.8 - 0.0 - - - - - - -
01/01:00pm 28.9 N 9 13 1012.4 - 0.0 - - - - - - -
01/12:30pm 29.0 N 8 11 1013.1 - 0.0 - - - - - - -
01/12:00pm 28.9 N 4 5 1013.7 - 0.0 - - - - - - -
01/11:30am 28.6 NNE 5 7 1014.3 - 0.0 - - - - - - -
01/11:00am 28.6 NNE 5 7 1014.7 - 0.0 - - - - - - -
01/10:30am 28.3 NE 7 10 1015.0 - 0.0 - - - - - - -
01/10:00am 28.8 ENE 5 7 1014.8 - 0.0 - - - - - - -
01/09:30am 28.9 ENE 4 7 1014.9 - 0.0 - - - - - - -
01/09:00am 28.9 ENE 3 6 1014.8 - 0.0 - - - - - - -
01/08:30am 28.1 E 2 4 1014.5 - 0.0 - - - - - - -
01/08:00am 27.3 SSE 2 4 1014.2 - 0.0 - - - - - - -
01/07:30am 25.9 S 2 4 1013.6 - 0.0 - - - - - - -
01/07:00am 24.6 S 3 4 1013.4 - 0.0 - - - - - - -
01/06:30am 26.0 ESE 2 5 1013.1 - 0.0 - - - - - - -
01/06:00am 26.2 E 3 6 1012.8 - 0.0 - - - - - - -
01/05:30am 26.3 E 4 6 1012.6 - 0.0 - - - - - - -
01/05:00am 26.7 ENE 7 11 1012.3 - 0.0 - - - - - - -
01/04:30am 26.7 ENE 4 7 1012.0 - 0.0 - - - - - - -
01/04:00am 26.7 ENE 5 9 1012.0 - 0.0 - - - - - - -
01/03:30am 26.5 ENE 4 7 1012.2 - 0.0 - - - - - - -
01/03:00am 26.8 ENE 6 10 1012.1 - 0.0 - - - - - - -
01/02:30am 26.3 ESE 2 4 1012.4 - 0.0 - - - - - - -
01/02:00am 26.5 NE 7 10 1012.5 - 0.0 - - - - - - -
01/01:30am 26.8 NE 10 13 1012.6 - 0.0 - - - - - - -
01/01:00am 27.1 NW 5 8 1012.8 - 0.0 - - - - - - -
01/12:30am 27.1 W 4 6 1012.9 - 0.0 - - - - - - -
01/12:00am 27.2 W 4 8 1013.3 - 0.0 - - - - - - -
 
Date/Time
CST
Temp

°C
Wind Pressure Rain
since 9am
mm
Weather Cloud Vis
km
Sea
Height
m
Swell
Dir
 
Speed
knots
Gust
knots
hPa Trend Height
m
Period
s
Dir
30/11:30pm 27.4 W 9 14 1013.2 - 0.0 - - - - - - -
30/11:00pm 27.5 W 6 12 1013.3 - 0.0 - - - - - - -
30/10:30pm 27.4 W 5 8 1013.3 - 0.0 - - - - - - -
30/10:00pm 27.3 W 5 9 1013.1 - 0.0 - - - - - - -
30/09:30pm 27.3 W 5 9 1012.6 - 0.0 - - - - - - -
30/09:00pm 27.5 W 5 9 1012.3 - 0.0 - - - - - - -
30/08:30pm 27.1 CALM 0 0 1011.8 - 0.0 - - - - - - -
30/08:00pm 27.6 CALM 0 2 1011.6 - 0.0 - - - - - - -
30/07:30pm 29.3 NNE 4 5 1011.3 - 0.0 - - - - - - -
30/07:00pm 29.1 NNE 5 7 1010.9 - 0.0 - - - - - - -
30/06:30pm 29.2 NNE 7 9 1010.4 - 0.0 - - - - - - -
30/06:00pm 29.2 NNE 9 12 1009.8 - 0.0 - - - - - - -
30/05:30pm 29.4 NNE 12 17 1009.6 - 0.0 - - - - - - -
30/05:00pm 29.3 NE 11 16 1009.5 - 0.0 - - - - - - -
30/04:30pm 29.6 NE 12 16 1009.6 - 0.0 - - - - - - -
30/04:00pm 29.7 NE 12 17 1009.8 - 0.0 - - - - - - -
30/03:30pm 29.3 NE 11 16 1010.2 - 0.0 - - - - - - -
30/03:00pm 29.4 NE 12 16 1010.6 - 0.0 - - - - - - -
30/02:30pm 29.5 NE 11 15 1011.0 - 0.0 - - - - - - -
30/02:00pm 29.9 NNE 9 13 1011.5 - 0.0 - - - - - - -
30/01:30pm 29.8 NNE 8 12 1012.0 - 0.0 - - - - - - -
30/01:00pm 29.6 NNE 8 11 1012.5 - 0.0 - - - - - - -
30/12:30pm 29.3 NNE 8 11 1013.0 - 0.0 - - - - - - -
30/12:00pm 28.8 NNE 7 11 1013.5 - 0.0 - - - - - - -
30/11:30am 28.7 NNE 6 8 1013.9 - 0.0 - - - - - - -
30/11:00am 29.0 NE 6 9 1014.2 - 0.0 - - - - - - -
30/10:30am 28.6 NE 6 10 1014.4 - 0.0 - - - - - - -
30/10:00am 28.7 NE 6 9 1014.8 - 0.0 - - - - - - -
30/09:30am 28.7 ENE 6 8 1014.9 - 0.0 - - - - - - -
30/09:00am 27.9 NE 6 9 1015.0 - 0.0 - - - - - - -
30/08:30am 28.0 NE 4 6 1014.8 - 0.0 - - - - - - -
30/08:00am 27.4 NE 5 8 1014.4 - 0.0 - - - - - - -
30/07:30am 27.2 ENE 4 7 1014.2 - 0.0 - - - - - - -
30/07:00am 26.5 NE 3 5 1014.0 - 0.0 - - - - - - -
30/06:30am 26.5 NE 5 7 1013.7 - 0.0 - - - - - - -
30/06:00am 26.5 NNE 5 8 1013.5 - 0.0 - - - - - - -
30/05:30am 26.5 NNE 7 10 1013.3 - 0.0 - - - - - - -
30/05:00am 26.6 N 9 12 1012.7 - 0.0 - - - - - - -
30/04:30am 26.8 NNE 8 11 1012.6 - 0.0 - - - - - - -
30/04:00am 26.9 N 7 9 1012.5 - 0.0 - - - - - - -
30/03:30am 26.7 NNW 4 8 1012.3 - 0.0 - - - - - - -
30/03:00am 24.4 CALM 0 2 1012.3 - 0.0 - - - - - - -
30/02:30am 24.6 CALM 0 0 1012.2 - 0.0 - - - - - - -
30/02:00am 24.9 W 1 2 1012.1 - 0.0 - - - - - - -
30/01:30am 26.1 WNW 4 6 1012.4 - 0.0 - - - - - - -
30/01:00am 26.8 WNW 5 7 1012.6 - 0.0 - - - - - - -
30/12:30am 27.2 NW 5 8 1012.7 - 0.0 - - - - - - -
30/12:00am 27.3 NW 8 11 1012.8 - 0.0 - - - - - - -
 
Date/Time
CST
Temp

°C
Wind Pressure Rain
since 9am
mm
Weather Cloud Vis
km
Sea
Height
m
Swell
Dir
 
Speed
knots
Gust
knots
hPa Trend Height
m
Period
s
Dir
29/11:30pm 27.4 NW 8 9 1013.0 - 0.0 - - - - - - -
29/11:00pm 27.6 WNW 8 10 1012.7 - 0.0 - - - - - - -
29/10:30pm 27.6 WNW 8 10 1012.7 - 0.0 - - - - - - -
29/10:00pm 27.1 WNW 4 7 1012.7 - 0.0 - - - - - - -
29/09:30pm 26.4 WSW 2 3 1012.3 - 0.0 - - - - - - -
29/09:00pm 26.7 WSW 2 4 1011.9 - 0.0 - - - - - - -
29/08:30pm 27.0 WSW 3 6 1011.5 - 0.0 - - - - - - -

Other Formats:

Comma delimited format used in spreadsheet applications
http://www.bom.gov.au/fwo/IDD60701/IDD60701.99510.axf

JavaScript Object Notation format (JSON) in row-major order
http://www.bom.gov.au/fwo/IDD60701/IDD60701.99510.json